sensor_id;sensor_type;location;lat;lon;timestamp;P1;durP1;ratioP1;P2;durP2;ratioP2
51925;SDS011;37952;51.938;15.480;2023-05-16T00:01:04;2.80;;;2.60;;
51925;SDS011;37952;51.938;15.480;2023-05-16T00:04:06;2.50;;;2.40;;
51925;SDS011;37952;51.938;15.480;2023-05-16T00:07:09;2.60;;;2.40;;
51925;SDS011;37952;51.938;15.480;2023-05-16T00:10:12;2.50;;;2.40;;
51925;SDS011;37952;51.938;15.480;2023-05-16T00:13:15;2.60;;;2.40;;
51925;SDS011;37952;51.938;15.480;2023-05-16T00:16:23;2.40;;;2.30;;
51925;SDS011;37952;51.938;15.480;2023-05-16T00:19:27;2.80;;;2.50;;
51925;SDS011;37952;51.938;15.480;2023-05-16T00:22:31;2.70;;;2.40;;
51925;SDS011;37952;51.938;15.480;2023-05-16T00:25:34;3.70;;;2.50;;
51925;SDS011;37952;51.938;15.480;2023-05-16T00:28:38;3.50;;;3.10;;
51925;SDS011;37952;51.938;15.480;2023-05-16T00:31:40;2.50;;;2.30;;
51925;SDS011;37952;51.938;15.480;2023-05-16T00:34:43;4.50;;;2.50;;
51925;SDS011;37952;51.938;15.480;2023-05-16T00:37:46;3.40;;;3.20;;
51925;SDS011;37952;51.938;15.480;2023-05-16T00:40:49;3.00;;;2.80;;
51925;SDS011;37952;51.938;15.480;2023-05-16T00:43:52;4.10;;;2.80;;
51925;SDS011;37952;51.938;15.480;2023-05-16T00:46:54;3.00;;;2.80;;
51925;SDS011;37952;51.938;15.480;2023-05-16T00:49:57;2.50;;;2.30;;
51925;SDS011;37952;51.938;15.480;2023-05-16T00:53:00;3.00;;;2.80;;
51925;SDS011;37952;51.938;15.480;2023-05-16T00:56:04;2.50;;;2.40;;
51925;SDS011;37952;51.938;15.480;2023-05-16T00:59:07;2.10;;;2.00;;
51925;SDS011;37952;51.938;15.480;2023-05-16T01:02:10;2.40;;;2.30;;
51925;SDS011;37952;51.938;15.480;2023-05-16T01:05:14;3.10;;;3.00;;
51925;SDS011;37952;51.938;15.480;2023-05-16T01:08:17;2.80;;;2.70;;
51925;SDS011;37952;51.938;15.480;2023-05-16T01:11:21;2.00;;;1.90;;
51925;SDS011;37952;51.938;15.480;2023-05-16T01:28:50;3.00;;;2.70;;
51925;SDS011;37952;51.938;15.480;2023-05-16T01:31:53;4.10;;;3.10;;
51925;SDS011;37952;51.938;15.480;2023-05-16T01:34:56;3.00;;;2.80;;
51925;SDS011;37952;51.938;15.480;2023-05-16T01:38:03;3.10;;;2.90;;
51925;SDS011;37952;51.938;15.480;2023-05-16T01:44:40;4.40;;;4.00;;
51925;SDS011;37952;51.938;15.480;2023-05-16T01:47:51;3.10;;;3.00;;
51925;SDS011;37952;51.938;15.480;2023-05-16T01:51:00;3.00;;;2.90;;
51925;SDS011;37952;51.938;15.480;2023-05-16T01:54:05;3.20;;;2.90;;
51925;SDS011;37952;51.938;15.480;2023-05-16T01:57:15;4.40;;;4.10;;
51925;SDS011;37952;51.938;15.480;2023-05-16T02:00:30;4.30;;;3.70;;
51925;SDS011;37952;51.938;15.480;2023-05-16T02:03:33;3.40;;;3.00;;
51925;SDS011;37952;51.938;15.480;2023-05-16T02:06:37;4.80;;;4.40;;
51925;SDS011;37952;51.938;15.480;2023-05-16T02:09:40;3.80;;;3.60;;
51925;SDS011;37952;51.938;15.480;2023-05-16T02:12:43;3.30;;;3.10;;
51925;SDS011;37952;51.938;15.480;2023-05-16T02:15:45;3.70;;;3.40;;
51925;SDS011;37952;51.938;15.480;2023-05-16T02:18:48;4.30;;;4.00;;
51925;SDS011;37952;51.938;15.480;2023-05-16T02:26:05;3.60;;;3.20;;
51925;SDS011;37952;51.938;15.480;2023-05-16T02:29:08;3.90;;;3.60;;
51925;SDS011;37952;51.938;15.480;2023-05-16T02:32:10;4.70;;;4.20;;
51925;SDS011;37952;51.938;15.480;2023-05-16T02:35:13;4.70;;;4.50;;
51925;SDS011;37952;51.938;15.480;2023-05-16T02:38:16;4.20;;;4.00;;
51925;SDS011;37952;51.938;15.480;2023-05-16T02:41:19;3.60;;;3.40;;
51925;SDS011;37952;51.938;15.480;2023-05-16T02:44:24;4.80;;;4.30;;
51925;SDS011;37952;51.938;15.480;2023-05-16T02:47:26;4.50;;;4.30;;
51925;SDS011;37952;51.938;15.480;2023-05-16T02:50:29;3.80;;;3.60;;
51925;SDS011;37952;51.938;15.480;2023-05-16T02:53:31;4.80;;;4.20;;
51925;SDS011;37952;51.938;15.480;2023-05-16T02:56:35;4.20;;;4.00;;
51925;SDS011;37952;51.938;15.480;2023-05-16T02:59:38;4.30;;;4.10;;
51925;SDS011;37952;51.938;15.480;2023-05-16T03:02:41;3.90;;;3.70;;
51925;SDS011;37952;51.938;15.480;2023-05-16T03:05:44;7.70;;;3.50;;
51925;SDS011;37952;51.938;15.480;2023-05-16T03:08:47;5.20;;;4.80;;
51925;SDS011;37952;51.938;15.480;2023-05-16T03:11:50;6.80;;;4.60;;
51925;SDS011;37952;51.938;15.480;2023-05-16T03:14:52;4.40;;;4.20;;
51925;SDS011;37952;51.938;15.480;2023-05-16T03:17:55;4.60;;;4.40;;
51925;SDS011;37952;51.938;15.480;2023-05-16T03:20:58;4.60;;;4.30;;
51925;SDS011;37952;51.938;15.480;2023-05-16T03:24:01;4.60;;;4.30;;
51925;SDS011;37952;51.938;15.480;2023-05-16T03:27:05;4.40;;;4.10;;
51925;SDS011;37952;51.938;15.480;2023-05-16T03:30:08;3.60;;;3.50;;
51925;SDS011;37952;51.938;15.480;2023-05-16T03:33:11;6.40;;;4.60;;
51925;SDS011;37952;51.938;15.480;2023-05-16T03:36:13;6.30;;;5.70;;
51925;SDS011;37952;51.938;15.480;2023-05-16T03:39:16;6.10;;;3.80;;
51925;SDS011;37952;51.938;15.480;2023-05-16T03:42:19;4.80;;;4.50;;
51925;SDS011;37952;51.938;15.480;2023-05-16T03:45:21;5.20;;;4.90;;
51925;SDS011;37952;51.938;15.480;2023-05-16T03:48:24;5.60;;;5.30;;
51925;SDS011;37952;51.938;15.480;2023-05-16T03:51:27;4.50;;;4.20;;
51925;SDS011;37952;51.938;15.480;2023-05-16T03:54:29;4.20;;;4.00;;
51925;SDS011;37952;51.938;15.480;2023-05-16T04:00:40;4.50;;;4.20;;
51925;SDS011;37952;51.938;15.480;2023-05-16T04:03:43;4.80;;;4.60;;
51925;SDS011;37952;51.938;15.480;2023-05-16T04:06:46;4.60;;;4.20;;
51925;SDS011;37952;51.938;15.480;2023-05-16T04:09:49;4.40;;;4.10;;
51925;SDS011;37952;51.938;15.480;2023-05-16T04:12:53;5.20;;;4.80;;
51925;SDS011;37952;51.938;15.480;2023-05-16T04:15:55;5.80;;;5.50;;
51925;SDS011;37952;51.938;15.480;2023-05-16T04:18:58;4.30;;;4.10;;
51925;SDS011;37952;51.938;15.480;2023-05-16T04:22:00;3.60;;;3.20;;
51925;SDS011;37952;51.938;15.480;2023-05-16T04:25:03;5.40;;;4.80;;
51925;SDS011;37952;51.938;15.480;2023-05-16T04:28:06;4.70;;;4.50;;
51925;SDS011;37952;51.938;15.480;2023-05-16T04:31:09;5.80;;;5.50;;
51925;SDS011;37952;51.938;15.480;2023-05-16T04:34:12;4.60;;;4.30;;
51925;SDS011;37952;51.938;15.480;2023-05-16T04:37:15;4.80;;;4.00;;
51925;SDS011;37952;51.938;15.480;2023-05-16T04:40:18;4.00;;;3.90;;
51925;SDS011;37952;51.938;15.480;2023-05-16T04:43:21;5.40;;;5.10;;
51925;SDS011;37952;51.938;15.480;2023-05-16T04:46:23;6.10;;;5.60;;
51925;SDS011;37952;51.938;15.480;2023-05-16T04:49:26;5.50;;;5.10;;
51925;SDS011;37952;51.938;15.480;2023-05-16T04:52:29;5.00;;;4.40;;
51925;SDS011;37952;51.938;15.480;2023-05-16T04:55:32;4.50;;;4.20;;
51925;SDS011;37952;51.938;15.480;2023-05-16T04:58:35;6.00;;;5.50;;
51925;SDS011;37952;51.938;15.480;2023-05-16T05:01:37;5.90;;;5.60;;
51925;SDS011;37952;51.938;15.480;2023-05-16T05:04:41;5.40;;;4.80;;
51925;SDS011;37952;51.938;15.480;2023-05-16T05:07:43;4.70;;;4.50;;
51925;SDS011;37952;51.938;15.480;2023-05-16T05:10:46;5.40;;;4.80;;
51925;SDS011;37952;51.938;15.480;2023-05-16T05:13:49;6.50;;;6.10;;
51925;SDS011;37952;51.938;15.480;2023-05-16T05:16:54;6.30;;;5.90;;
51925;SDS011;37952;51.938;15.480;2023-05-16T05:19:57;6.10;;;5.80;;
51925;SDS011;37952;51.938;15.480;2023-05-16T05:23:02;5.80;;;5.40;;
51925;SDS011;37952;51.938;15.480;2023-05-16T05:26:04;6.30;;;5.90;;
51925;SDS011;37952;51.938;15.480;2023-05-16T05:29:07;5.80;;;5.40;;
51925;SDS011;37952;51.938;15.480;2023-05-16T05:32:10;5.80;;;5.50;;
51925;SDS011;37952;51.938;15.480;2023-05-16T05:35:13;6.30;;;5.90;;
51925;SDS011;37952;51.938;15.480;2023-05-16T05:38:16;7.60;;;7.10;;
51925;SDS011;37952;51.938;15.480;2023-05-16T05:41:19;9.40;;;6.60;;
51925;SDS011;37952;51.938;15.480;2023-05-16T05:44:23;6.90;;;6.50;;
51925;SDS011;37952;51.938;15.480;2023-05-16T05:47:26;5.80;;;5.40;;
51925;SDS011;37952;51.938;15.480;2023-05-16T05:50:29;7.10;;;6.60;;
51925;SDS011;37952;51.938;15.480;2023-05-16T05:53:31;8.90;;;8.10;;
51925;SDS011;37952;51.938;15.480;2023-05-16T05:56:34;9.50;;;8.80;;
51925;SDS011;37952;51.938;15.480;2023-05-16T05:59:37;10.00;;;9.10;;
51925;SDS011;37952;51.938;15.480;2023-05-16T06:02:40;10.20;;;8.30;;
51925;SDS011;37952;51.938;15.480;2023-05-16T06:05:43;8.10;;;7.50;;
51925;SDS011;37952;51.938;15.480;2023-05-16T06:08:46;10.80;;;10.00;;
51925;SDS011;37952;51.938;15.480;2023-05-16T06:11:49;8.80;;;8.10;;
51925;SDS011;37952;51.938;15.480;2023-05-16T06:14:52;13.60;;;12.30;;
51925;SDS011;37952;51.938;15.480;2023-05-16T06:17:54;8.70;;;7.90;;
51925;SDS011;37952;51.938;15.480;2023-05-16T06:20:57;9.20;;;8.50;;
51925;SDS011;37952;51.938;15.480;2023-05-16T06:24:00;12.00;;;11.00;;
51925;SDS011;37952;51.938;15.480;2023-05-16T06:27:02;13.30;;;12.00;;
51925;SDS011;37952;51.938;15.480;2023-05-16T06:30:05;10.70;;;9.80;;
51925;SDS011;37952;51.938;15.480;2023-05-16T06:33:08;15.60;;;13.80;;
51925;SDS011;37952;51.938;15.480;2023-05-16T06:36:11;12.90;;;11.70;;
51925;SDS011;37952;51.938;15.480;2023-05-16T06:39:14;13.90;;;12.50;;
51925;SDS011;37952;51.938;15.480;2023-05-16T06:42:17;14.70;;;13.20;;
51925;SDS011;37952;51.938;15.480;2023-05-16T06:45:21;15.30;;;13.90;;
51925;SDS011;37952;51.938;15.480;2023-05-16T06:48:24;12.70;;;11.40;;
51925;SDS011;37952;51.938;15.480;2023-05-16T06:51:27;12.30;;;11.10;;
51925;SDS011;37952;51.938;15.480;2023-05-16T06:54:30;15.40;;;13.90;;
51925;SDS011;37952;51.938;15.480;2023-05-16T06:57:38;11.90;;;10.90;;
51925;SDS011;37952;51.938;15.480;2023-05-16T07:00:41;13.10;;;11.30;;
51925;SDS011;37952;51.938;15.480;2023-05-16T07:03:45;14.80;;;12.60;;
51925;SDS011;37952;51.938;15.480;2023-05-16T07:06:48;16.90;;;15.30;;
51925;SDS011;37952;51.938;15.480;2023-05-16T07:09:51;17.30;;;15.40;;
51925;SDS011;37952;51.938;15.480;2023-05-16T07:12:54;14.40;;;13.10;;
51925;SDS011;37952;51.938;15.480;2023-05-16T07:15:58;13.80;;;12.20;;
51925;SDS011;37952;51.938;15.480;2023-05-16T07:19:00;16.70;;;12.80;;
51925;SDS011;37952;51.938;15.480;2023-05-16T07:22:03;14.80;;;13.40;;
51925;SDS011;37952;51.938;15.480;2023-05-16T07:25:07;12.80;;;11.50;;
51925;SDS011;37952;51.938;15.480;2023-05-16T07:28:14;11.60;;;10.40;;
51925;SDS011;37952;51.938;15.480;2023-05-16T07:31:16;14.20;;;13.10;;
51925;SDS011;37952;51.938;15.480;2023-05-16T07:34:19;18.00;;;16.00;;
51925;SDS011;37952;51.938;15.480;2023-05-16T07:37:22;15.90;;;14.20;;
51925;SDS011;37952;51.938;15.480;2023-05-16T07:40:25;18.10;;;14.90;;
51925;SDS011;37952;51.938;15.480;2023-05-16T07:43:30;17.60;;;14.00;;
51925;SDS011;37952;51.938;15.480;2023-05-16T07:46:36;17.10;;;14.30;;
51925;SDS011;37952;51.938;15.480;2023-05-16T07:49:39;15.90;;;14.40;;
51925;SDS011;37952;51.938;15.480;2023-05-16T07:52:43;22.70;;;16.20;;
51925;SDS011;37952;51.938;15.480;2023-05-16T07:55:46;17.00;;;14.40;;
51925;SDS011;37952;51.938;15.480;2023-05-16T07:58:50;12.70;;;11.60;;
51925;SDS011;37952;51.938;15.480;2023-05-16T08:01:52;15.00;;;13.70;;
51925;SDS011;37952;51.938;15.480;2023-05-16T08:04:57;16.00;;;14.50;;
51925;SDS011;37952;51.938;15.480;2023-05-16T08:07:59;14.20;;;12.70;;
51925;SDS011;37952;51.938;15.480;2023-05-16T08:11:02;19.70;;;17.70;;
51925;SDS011;37952;51.938;15.480;2023-05-16T08:14:05;18.10;;;15.70;;
51925;SDS011;37952;51.938;15.480;2023-05-16T08:17:08;19.00;;;17.10;;
51925;SDS011;37952;51.938;15.480;2023-05-16T08:20:11;19.10;;;16.60;;
51925;SDS011;37952;51.938;15.480;2023-05-16T08:23:14;23.50;;;19.80;;
51925;SDS011;37952;51.938;15.480;2023-05-16T08:26:17;20.40;;;18.30;;
51925;SDS011;37952;51.938;15.480;2023-05-16T08:29:20;19.80;;;17.70;;
51925;SDS011;37952;51.938;15.480;2023-05-16T08:32:23;21.10;;;17.80;;
51925;SDS011;37952;51.938;15.480;2023-05-16T08:35:26;19.40;;;17.30;;
51925;SDS011;37952;51.938;15.480;2023-05-16T08:38:29;21.00;;;17.90;;
51925;SDS011;37952;51.938;15.480;2023-05-16T08:41:32;17.90;;;13.80;;
51925;SDS011;37952;51.938;15.480;2023-05-16T08:44:34;15.00;;;13.60;;
51925;SDS011;37952;51.938;15.480;2023-05-16T08:47:38;19.30;;;16.80;;
51925;SDS011;37952;51.938;15.480;2023-05-16T08:50:44;20.80;;;18.50;;
51925;SDS011;37952;51.938;15.480;2023-05-16T08:53:58;15.60;;;14.10;;
51925;SDS011;37952;51.938;15.480;2023-05-16T08:57:05;17.50;;;15.60;;
51925;SDS011;37952;51.938;15.480;2023-05-16T09:00:08;15.20;;;13.30;;
51925;SDS011;37952;51.938;15.480;2023-05-16T09:03:14;16.60;;;15.00;;
51925;SDS011;37952;51.938;15.480;2023-05-16T09:06:18;16.10;;;12.40;;
51925;SDS011;37952;51.938;15.480;2023-05-16T09:09:22;14.80;;;13.40;;
51925;SDS011;37952;51.938;15.480;2023-05-16T09:12:25;16.90;;;12.80;;
51925;SDS011;37952;51.938;15.480;2023-05-16T09:15:32;16.00;;;14.40;;
51925;SDS011;37952;51.938;15.480;2023-05-16T09:18:36;13.30;;;12.00;;
51925;SDS011;37952;51.938;15.480;2023-05-16T09:21:39;15.40;;;14.00;;
51925;SDS011;37952;51.938;15.480;2023-05-16T09:24:43;13.40;;;12.10;;
51925;SDS011;37952;51.938;15.480;2023-05-16T09:27:47;13.80;;;12.50;;
51925;SDS011;37952;51.938;15.480;2023-05-16T09:30:54;13.30;;;12.00;;
51925;SDS011;37952;51.938;15.480;2023-05-16T09:34:00;11.70;;;10.70;;
51925;SDS011;37952;51.938;15.480;2023-05-16T09:37:04;13.70;;;12.30;;
51925;SDS011;37952;51.938;15.480;2023-05-16T09:40:07;18.20;;;13.90;;
51925;SDS011;37952;51.938;15.480;2023-05-16T09:43:13;13.10;;;11.80;;
51925;SDS011;37952;51.938;15.480;2023-05-16T09:46:18;14.80;;;12.20;;
51925;SDS011;37952;51.938;15.480;2023-05-16T09:49:27;14.70;;;12.90;;
51925;SDS011;37952;51.938;15.480;2023-05-16T09:52:32;14.70;;;13.30;;
51925;SDS011;37952;51.938;15.480;2023-05-16T09:55:35;11.50;;;10.40;;
51925;SDS011;37952;51.938;15.480;2023-05-16T09:58:39;13.80;;;10.10;;
51925;SDS011;37952;51.938;15.480;2023-05-16T10:01:43;13.70;;;12.30;;
51925;SDS011;37952;51.938;15.480;2023-05-16T10:04:46;12.50;;;11.20;;
51925;SDS011;37952;51.938;15.480;2023-05-16T10:07:49;11.80;;;10.70;;
51925;SDS011;37952;51.938;15.480;2023-05-16T10:10:53;12.90;;;11.60;;
51925;SDS011;37952;51.938;15.480;2023-05-16T10:13:58;13.70;;;12.50;;
51925;SDS011;37952;51.938;15.480;2023-05-16T10:17:02;22.70;;;15.90;;
51925;SDS011;37952;51.938;15.480;2023-05-16T10:20:06;13.70;;;12.30;;
51925;SDS011;37952;51.938;15.480;2023-05-16T10:23:13;11.30;;;10.10;;
51925;SDS011;37952;51.938;15.480;2023-05-16T10:26:18;13.10;;;11.80;;
51925;SDS011;37952;51.938;15.480;2023-05-16T10:29:22;11.40;;;10.30;;
51925;SDS011;37952;51.938;15.480;2023-05-16T10:32:26;8.80;;;8.00;;
51925;SDS011;37952;51.938;15.480;2023-05-16T10:35:30;12.60;;;11.40;;
51925;SDS011;37952;51.938;15.480;2023-05-16T10:38:34;14.10;;;12.50;;
51925;SDS011;37952;51.938;15.480;2023-05-16T10:41:39;13.20;;;11.90;;
51925;SDS011;37952;51.938;15.480;2023-05-16T10:44:42;12.60;;;11.40;;
51925;SDS011;37952;51.938;15.480;2023-05-16T10:48:01;13.90;;;12.20;;
51925;SDS011;37952;51.938;15.480;2023-05-16T10:57:40;14.60;;;13.10;;
51925;SDS011;37952;51.938;15.480;2023-05-16T11:00:46;10.00;;;8.90;;
51925;SDS011;37952;51.938;15.480;2023-05-16T11:07:01;17.70;;;13.70;;
51925;SDS011;37952;51.938;15.480;2023-05-16T11:10:06;13.10;;;11.90;;
51925;SDS011;37952;51.938;15.480;2023-05-16T11:13:11;15.10;;;13.70;;
51925;SDS011;37952;51.938;15.480;2023-05-16T11:16:26;17.10;;;15.40;;
51925;SDS011;37952;51.938;15.480;2023-05-16T11:19:32;17.20;;;15.50;;
51925;SDS011;37952;51.938;15.480;2023-05-16T11:22:37;17.50;;;14.90;;
51925;SDS011;37952;51.938;15.480;2023-05-16T11:25:43;13.60;;;12.40;;
51925;SDS011;37952;51.938;15.480;2023-05-16T11:28:48;13.50;;;12.30;;
51925;SDS011;37952;51.938;15.480;2023-05-16T11:31:51;12.80;;;11.70;;
51925;SDS011;37952;51.938;15.480;2023-05-16T11:34:55;11.60;;;10.40;;
51925;SDS011;37952;51.938;15.480;2023-05-16T11:37:59;10.10;;;9.10;;
51925;SDS011;37952;51.938;15.480;2023-05-16T11:41:03;12.20;;;10.40;;
51925;SDS011;37952;51.938;15.480;2023-05-16T11:44:10;17.60;;;13.90;;
51925;SDS011;37952;51.938;15.480;2023-05-16T11:47:13;19.40;;;13.30;;
51925;SDS011;37952;51.938;15.480;2023-05-16T11:50:20;13.80;;;12.30;;
51925;SDS011;37952;51.938;15.480;2023-05-16T11:53:25;11.00;;;10.10;;
51925;SDS011;37952;51.938;15.480;2023-05-16T11:56:30;12.20;;;10.90;;
51925;SDS011;37952;51.938;15.480;2023-05-16T11:59:33;15.00;;;13.50;;
51925;SDS011;37952;51.938;15.480;2023-05-16T12:02:36;11.10;;;10.00;;
51925;SDS011;37952;51.938;15.480;2023-05-16T12:05:39;12.00;;;11.00;;
51925;SDS011;37952;51.938;15.480;2023-05-16T12:08:52;15.30;;;13.50;;
51925;SDS011;37952;51.938;15.480;2023-05-16T12:11:55;13.70;;;12.20;;
51925;SDS011;37952;51.938;15.480;2023-05-16T12:14:58;10.60;;;9.60;;
51925;SDS011;37952;51.938;15.480;2023-05-16T12:18:01;14.20;;;12.30;;
51925;SDS011;37952;51.938;15.480;2023-05-16T12:21:04;13.80;;;12.50;;
51925;SDS011;37952;51.938;15.480;2023-05-16T12:24:08;50.10;;;38.60;;
51925;SDS011;37952;51.938;15.480;2023-05-16T12:27:12;24.30;;;17.30;;
51925;SDS011;37952;51.938;15.480;2023-05-16T12:30:23;14.90;;;13.30;;
51925;SDS011;37952;51.938;15.480;2023-05-16T12:33:28;13.80;;;12.40;;
51925;SDS011;37952;51.938;15.480;2023-05-16T12:36:32;14.90;;;13.40;;
51925;SDS011;37952;51.938;15.480;2023-05-16T12:39:36;18.90;;;12.80;;
51925;SDS011;37952;51.938;15.480;2023-05-16T12:42:42;13.10;;;9.60;;
51925;SDS011;37952;51.938;15.480;2023-05-16T12:45:52;17.40;;;13.80;;
51925;SDS011;37952;51.938;15.480;2023-05-16T12:49:02;16.80;;;15.00;;
51925;SDS011;37952;51.938;15.480;2023-05-16T12:52:07;15.70;;;14.00;;
51925;SDS011;37952;51.938;15.480;2023-05-16T12:55:20;15.50;;;12.40;;
51925;SDS011;37952;51.938;15.480;2023-05-16T12:58:24;17.60;;;15.10;;
51925;SDS011;37952;51.938;15.480;2023-05-16T13:01:27;18.90;;;14.10;;
51925;SDS011;37952;51.938;15.480;2023-05-16T13:04:30;17.20;;;13.60;;
51925;SDS011;37952;51.938;15.480;2023-05-16T13:07:33;15.50;;;13.90;;
51925;SDS011;37952;51.938;15.480;2023-05-16T13:10:36;17.00;;;14.80;;
51925;SDS011;37952;51.938;15.480;2023-05-16T13:13:39;20.40;;;16.30;;
51925;SDS011;37952;51.938;15.480;2023-05-16T13:16:42;13.60;;;12.30;;
51925;SDS011;37952;51.938;15.480;2023-05-16T13:19:46;10.40;;;9.60;;
51925;SDS011;37952;51.938;15.480;2023-05-16T13:22:50;13.30;;;11.60;;
51925;SDS011;37952;51.938;15.480;2023-05-16T13:25:53;18.60;;;13.30;;
51925;SDS011;37952;51.938;15.480;2023-05-16T13:28:55;14.00;;;12.80;;
51925;SDS011;37952;51.938;15.480;2023-05-16T13:31:58;9.30;;;8.50;;
51925;SDS011;37952;51.938;15.480;2023-05-16T13:35:01;11.80;;;10.50;;
51925;SDS011;37952;51.938;15.480;2023-05-16T13:38:05;13.50;;;11.00;;
51925;SDS011;37952;51.938;15.480;2023-05-16T13:41:08;15.40;;;11.10;;
51925;SDS011;37952;51.938;15.480;2023-05-16T13:44:10;15.30;;;13.20;;
51925;SDS011;37952;51.938;15.480;2023-05-16T13:47:14;11.30;;;10.00;;
51925;SDS011;37952;51.938;15.480;2023-05-16T13:50:17;12.30;;;10.80;;
51925;SDS011;37952;51.938;15.480;2023-05-16T13:53:20;14.00;;;11.90;;
51925;SDS011;37952;51.938;15.480;2023-05-16T13:56:22;15.10;;;13.50;;
51925;SDS011;37952;51.938;15.480;2023-05-16T13:59:25;13.00;;;11.70;;
51925;SDS011;37952;51.938;15.480;2023-05-16T14:02:48;16.00;;;11.80;;
51925;SDS011;37952;51.938;15.480;2023-05-16T14:05:51;13.00;;;10.70;;
51925;SDS011;37952;51.938;15.480;2023-05-16T14:08:54;12.80;;;11.80;;
51925;SDS011;37952;51.938;15.480;2023-05-16T14:11:56;10.30;;;9.40;;
51925;SDS011;37952;51.938;15.480;2023-05-16T14:14:59;10.50;;;9.50;;
51925;SDS011;37952;51.938;15.480;2023-05-16T14:18:02;11.30;;;10.00;;
51925;SDS011;37952;51.938;15.480;2023-05-16T14:21:06;13.50;;;12.20;;
51925;SDS011;37952;51.938;15.480;2023-05-16T14:24:09;13.20;;;11.90;;
51925;SDS011;37952;51.938;15.480;2023-05-16T14:27:11;9.70;;;8.80;;
51925;SDS011;37952;51.938;15.480;2023-05-16T14:30:16;12.10;;;9.90;;
51925;SDS011;37952;51.938;15.480;2023-05-16T14:33:18;14.70;;;10.50;;
51925;SDS011;37952;51.938;15.480;2023-05-16T14:36:22;12.60;;;11.50;;
51925;SDS011;37952;51.938;15.480;2023-05-16T14:39:25;11.60;;;10.50;;
51925;SDS011;37952;51.938;15.480;2023-05-16T14:42:28;8.80;;;8.10;;
51925;SDS011;37952;51.938;15.480;2023-05-16T14:45:31;9.20;;;8.60;;
51925;SDS011;37952;51.938;15.480;2023-05-16T14:48:33;12.00;;;9.50;;
51925;SDS011;37952;51.938;15.480;2023-05-16T14:51:36;10.00;;;9.20;;
51925;SDS011;37952;51.938;15.480;2023-05-16T14:54:39;7.10;;;6.60;;
51925;SDS011;37952;51.938;15.480;2023-05-16T14:57:46;8.10;;;7.50;;
51925;SDS011;37952;51.938;15.480;2023-05-16T15:00:53;7.90;;;7.40;;
51925;SDS011;37952;51.938;15.480;2023-05-16T15:03:56;9.60;;;7.30;;
51925;SDS011;37952;51.938;15.480;2023-05-16T15:06:59;7.30;;;6.70;;
51925;SDS011;37952;51.938;15.480;2023-05-16T15:10:01;8.60;;;6.30;;
51925;SDS011;37952;51.938;15.480;2023-05-16T15:13:04;6.60;;;6.00;;
51925;SDS011;37952;51.938;15.480;2023-05-16T15:16:07;6.70;;;5.40;;
51925;SDS011;37952;51.938;15.480;2023-05-16T15:19:10;6.60;;;6.20;;
51925;SDS011;37952;51.938;15.480;2023-05-16T15:22:13;5.90;;;5.40;;
51925;SDS011;37952;51.938;15.480;2023-05-16T15:25:16;5.90;;;5.30;;
51925;SDS011;37952;51.938;15.480;2023-05-16T15:28:19;5.10;;;4.80;;
51925;SDS011;37952;51.938;15.480;2023-05-16T15:31:24;6.00;;;5.40;;
51925;SDS011;37952;51.938;15.480;2023-05-16T15:34:26;5.70;;;5.20;;
51925;SDS011;37952;51.938;15.480;2023-05-16T15:37:30;4.90;;;4.70;;
51925;SDS011;37952;51.938;15.480;2023-05-16T15:40:32;4.40;;;4.10;;
51925;SDS011;37952;51.938;15.480;2023-05-16T15:43:35;4.80;;;4.40;;
51925;SDS011;37952;51.938;15.480;2023-05-16T15:46:38;5.20;;;4.70;;
51925;SDS011;37952;51.938;15.480;2023-05-16T15:49:40;5.40;;;3.80;;
51925;SDS011;37952;51.938;15.480;2023-05-16T15:52:43;4.20;;;3.90;;
51925;SDS011;37952;51.938;15.480;2023-05-16T15:55:46;5.00;;;2.90;;
51925;SDS011;37952;51.938;15.480;2023-05-16T15:58:54;4.00;;;3.10;;
51925;SDS011;37952;51.938;15.480;2023-05-16T16:01:57;3.20;;;3.00;;
51925;SDS011;37952;51.938;15.480;2023-05-16T16:05:00;4.20;;;3.90;;
51925;SDS011;37952;51.938;15.480;2023-05-16T16:08:03;2.60;;;2.50;;
51925;SDS011;37952;51.938;15.480;2023-05-16T16:11:06;2.60;;;2.40;;
51925;SDS011;37952;51.938;15.480;2023-05-16T16:14:09;5.20;;;3.00;;
51925;SDS011;37952;51.938;15.480;2023-05-16T16:17:12;6.00;;;4.20;;
51925;SDS011;37952;51.938;15.480;2023-05-16T16:20:17;5.50;;;3.00;;
51925;SDS011;37952;51.938;15.480;2023-05-16T16:23:20;3.10;;;2.90;;
51925;SDS011;37952;51.938;15.480;2023-05-16T16:26:23;2.50;;;2.30;;
51925;SDS011;37952;51.938;15.480;2023-05-16T16:29:26;2.50;;;2.30;;
51925;SDS011;37952;51.938;15.480;2023-05-16T16:32:28;2.80;;;2.60;;
51925;SDS011;37952;51.938;15.480;2023-05-16T16:35:32;3.30;;;3.00;;
51925;SDS011;37952;51.938;15.480;2023-05-16T16:38:34;3.10;;;2.80;;
51925;SDS011;37952;51.938;15.480;2023-05-16T16:41:37;5.10;;;2.30;;
51925;SDS011;37952;51.938;15.480;2023-05-16T16:44:40;5.30;;;2.70;;
51925;SDS011;37952;51.938;15.480;2023-05-16T16:47:43;3.70;;;2.70;;
51925;SDS011;37952;51.938;15.480;2023-05-16T16:50:45;3.20;;;3.00;;
51925;SDS011;37952;51.938;15.480;2023-05-16T16:53:48;2.50;;;2.20;;
51925;SDS011;37952;51.938;15.480;2023-05-16T16:56:51;3.00;;;2.10;;
51925;SDS011;37952;51.938;15.480;2023-05-16T16:59:54;3.50;;;2.30;;
51925;SDS011;37952;51.938;15.480;2023-05-16T17:02:57;2.80;;;2.30;;
51925;SDS011;37952;51.938;15.480;2023-05-16T17:06:00;3.00;;;2.70;;
51925;SDS011;37952;51.938;15.480;2023-05-16T17:09:03;2.90;;;2.60;;
51925;SDS011;37952;51.938;15.480;2023-05-16T17:12:08;2.50;;;1.80;;
51925;SDS011;37952;51.938;15.480;2023-05-16T17:15:19;2.50;;;2.30;;
51925;SDS011;37952;51.938;15.480;2023-05-16T17:18:23;3.80;;;2.30;;
51925;SDS011;37952;51.938;15.480;2023-05-16T17:21:26;2.40;;;2.20;;
51925;SDS011;37952;51.938;15.480;2023-05-16T17:24:29;2.30;;;1.60;;
51925;SDS011;37952;51.938;15.480;2023-05-16T17:27:32;1.60;;;1.50;;
51925;SDS011;37952;51.938;15.480;2023-05-16T17:30:34;1.50;;;1.40;;
51925;SDS011;37952;51.938;15.480;2023-05-16T17:33:38;2.50;;;1.50;;
51925;SDS011;37952;51.938;15.480;2023-05-16T17:36:40;4.40;;;2.40;;
51925;SDS011;37952;51.938;15.480;2023-05-16T17:39:43;3.10;;;2.40;;
51925;SDS011;37952;51.938;15.480;2023-05-16T17:42:46;2.30;;;2.00;;
51925;SDS011;37952;51.938;15.480;2023-05-16T17:45:49;1.80;;;1.70;;
51925;SDS011;37952;51.938;15.480;2023-05-16T17:48:52;2.60;;;2.30;;
51925;SDS011;37952;51.938;15.480;2023-05-16T17:51:56;4.40;;;1.80;;
51925;SDS011;37952;51.938;15.480;2023-05-16T17:54:59;2.80;;;2.20;;
51925;SDS011;37952;51.938;15.480;2023-05-16T17:58:02;2.00;;;1.50;;
51925;SDS011;37952;51.938;15.480;2023-05-16T18:01:05;3.90;;;3.60;;
51925;SDS011;37952;51.938;15.480;2023-05-16T18:04:09;3.20;;;2.50;;
51925;SDS011;37952;51.938;15.480;2023-05-16T18:07:13;2.60;;;2.30;;
51925;SDS011;37952;51.938;15.480;2023-05-16T18:10:16;2.90;;;2.60;;
51925;SDS011;37952;51.938;15.480;2023-05-16T18:13:20;123.20;;;64.00;;
51925;SDS011;37952;51.938;15.480;2023-05-16T18:16:23;19.60;;;16.90;;
51925;SDS011;37952;51.938;15.480;2023-05-16T18:19:26;8.10;;;7.40;;
51925;SDS011;37952;51.938;15.480;2023-05-16T18:22:29;5.20;;;4.40;;
51925;SDS011;37952;51.938;15.480;2023-05-16T18:25:32;4.20;;;3.60;;
51925;SDS011;37952;51.938;15.480;2023-05-16T18:28:34;3.80;;;3.30;;
51925;SDS011;37952;51.938;15.480;2023-05-16T18:31:37;4.30;;;2.20;;